Time;durP1;ratioP1;P1;durP2;ratioP2;P2;SDS_P1;SDS_P2;PMS_P1;PMS_P2;Temp;Humidity;BMP_temperature;BMP_pressure;BME280_temperature;BME280_humidity;BME280_pressure;Samples;Min_cycle;Max_cycle;Signal;HPM_P1;HPM_P2
2021/09/07 00:01:09;;;;;;;;;;;;;;;11.64;58.82;100366.09;3314223;29;19933;-75
2021/09/07 00:02:49;;;;;;;;;;;;;;;11.68;58.87;100367.38;3314211;29;20539;-77
2021/09/07 00:04:31;;;;;;;;;;;;;;;11.68;59.10;100366.53;3314274;29;19933;-76
2021/09/07 00:06:11;;;;;;;;;;;;;;;11.68;59.06;100361.19;3313966;29;20025;-78
2021/09/07 00:07:52;;;;;;;;;;;;;;;11.68;58.99;100361.19;3313849;29;20020;-76
2021/09/07 00:09:32;;;;;;;;;;;;;;;11.68;59.01;100358.53;3313321;29;20019;-76
2021/09/07 00:11:15;;;;;;;;;;;;;;;11.70;58.91;100362.66;3314018;29;19935;-75
2021/09/07 00:12:56;;;;;;;;;;;;;;;11.71;59.09;100364.31;3314179;29;19928;-75
2021/09/07 00:14:38;;;;;;;;;;;;;;;11.72;58.76;100357.13;3313918;29;20027;-76
2021/09/07 00:16:20;;;;;;;;;;;;;;;11.70;58.79;100362.66;3313803;29;20464;-76
2021/09/07 00:18:00;;;;;;;;;;;;;;;11.70;58.82;100360.00;3314774;29;19986;-76
2021/09/07 00:19:42;;;;;;;;;;;;;;;11.72;59.24;100362.47;3316604;29;19929;-76
2021/09/07 00:21:22;;;;;;;;;;;;;;;11.70;59.18;100362.66;3316210;29;19929;-75
2021/09/07 00:23:03;;;;;;;;;;;;;;;11.70;59.45;100359.19;3315493;29;20028;-75
2021/09/07 00:24:43;;;;;;;;;;;;;;;11.68;59.25;100362.03;3314199;29;20017;-76
2021/09/07 00:26:24;;;;;;;;;;;;;;;11.67;59.08;100362.19;3313804;29;20012;-75
2021/09/07 00:28:04;;;;;;;;;;;;;;;11.67;59.40;100360.38;3313988;29;19929;-73
2021/09/07 00:29:45;;;;;;;;;;;;;;;11.64;59.07;100358.09;3313834;29;20042;-76
2021/09/07 00:31:25;;;;;;;;;;;;;;;11.60;59.47;100364.78;3314354;29;19999;-76
2021/09/07 00:33:08;;;;;;;;;;;;;;;11.56;59.02;100361.69;3314040;29;19935;-77
2021/09/07 00:34:48;;;;;;;;;;;;;;;11.54;59.38;100360.19;3313936;29;19979;-78
2021/09/07 00:36:29;;;;;;;;;;;;;;;11.53;59.04;100364.69;3312865;29;19929;-77
2021/09/07 00:38:11;;;;;;;;;;;;;;;11.52;59.42;100357.72;3313888;29;19929;-76
2021/09/07 00:39:52;;;;;;;;;;;;;;;11.53;59.38;100355.84;3314135;29;19936;-76
2021/09/07 00:41:33;;;;;;;;;;;;;;;11.52;59.35;100368.38;3313956;29;19929;-77
2021/09/07 00:43:13;;;;;;;;;;;;;;;11.52;59.46;100351.53;3313559;29;19970;-77
2021/09/07 00:44:54;;;;;;;;;;;;;;;11.53;59.05;100355.84;3313551;29;19936;-76
2021/09/07 00:46:35;;;;;;;;;;;;;;;11.53;59.38;100358.53;3325087;29;20409;-75
2021/09/07 00:48:15;;;;;;;;;;;;;;;11.51;59.16;100358.72;3315196;29;19928;-76
2021/09/07 00:49:56;;;;;;;;;;;;;;;11.50;59.15;100364.25;3313579;29;19940;-77
2021/09/07 00:51:36;;;;;;;;;;;;;;;11.48;59.37;100360.91;3313533;29;19929;-76
2021/09/07 00:53:17;;;;;;;;;;;;;;;11.45;59.38;100356.78;3313485;29;19929;-76
2021/09/07 00:54:58;;;;;;;;;;;;;;;11.45;59.32;100355.94;3313510;29;20306;-75
2021/09/07 00:56:38;;;;;;;;;;;;;;;11.44;59.41;100352.47;3313683;29;19935;-75
2021/09/07 00:58:19;;;;;;;;;;;;;;;11.45;59.06;100358.63;3312993;29;19929;-74
2021/09/07 01:00:00;;;;;;;;;;;;;;;11.44;59.48;100360.47;3314226;29;20465;-74
2021/09/07 01:01:41;;;;;;;;;;;;;;;11.41;59.47;100355.50;3315159;29;19929;-74
2021/09/07 01:03:22;;;;;;;;;;;;;;;11.43;59.51;100360.63;3316099;29;20437;-75
2021/09/07 01:05:03;;;;;;;;;;;;;;;11.40;59.41;100356.50;3318009;29;20342;-76
2021/09/07 01:06:44;;;;;;;;;;;;;;;11.37;59.39;100348.03;3317302;29;19929;-75
2021/09/07 01:08:24;;;;;;;;;;;;;;;11.35;59.79;100354.38;3315958;29;19952;-76
2021/09/07 01:10:06;;;;;;;;;;;;;;;11.34;59.71;100354.56;3317043;29;19936;-76
2021/09/07 01:11:47;;;;;;;;;;;;;;;11.35;59.64;100343.69;3316274;29;19929;-77
2021/09/07 01:13:27;;;;;;;;;;;;;;;11.35;59.65;100346.38;3317535;29;20027;-76
2021/09/07 01:15:08;;;;;;;;;;;;;;;11.35;59.69;100349.03;3317033;29;19929;-75
2021/09/07 01:16:50;;;;;;;;;;;;;;;11.35;59.69;100351.69;3316371;29;19937;-75
2021/09/07 01:18:31;;;;;;;;;;;;;;;11.35;59.62;100351.69;3317024;29;19967;-76
2021/09/07 01:20:12;;;;;;;;;;;;;;;11.34;59.70;100347.38;3315299;29;20362;-76
2021/09/07 01:21:53;;;;;;;;;;;;;;;11.33;59.58;100351.09;3313656;29;20019;-76
2021/09/07 01:23:34;;;;;;;;;;;;;;;11.32;59.55;100352.06;3313442;29;20313;-75
2021/09/07 01:25:16;;;;;;;;;;;;;;;11.30;59.42;100340.75;3312930;29;20388;-75
2021/09/07 01:26:56;;;;;;;;;;;;;;;11.30;59.69;100343.41;3312322;29;20028;-74
2021/09/07 01:28:39;;;;;;;;;;;;;;;11.33;59.56;100343.06;3312382;29;20217;-74
2021/09/07 01:30:21;;;;;;;;;;;;;;;11.35;59.39;100341.03;3312877;29;19952;-78
2021/09/07 01:32:02;;;;;;;;;;;;;;;11.38;59.56;100339.84;3313332;29;20044;-73
2021/09/07 01:33:47;;;;;;;;;;;;;;;11.39;59.53;100335.34;3324525;29;19929;-74
2021/09/07 01:35:28;;;;;;;;;;;;;;;11.41;59.40;100333.31;3312950;29;20485;-74
2021/09/07 01:37:08;;;;;;;;;;;;;;;11.41;59.40;100334.16;3311234;29;19936;-75
2021/09/07 01:38:49;;;;;;;;;;;;;;;11.39;59.38;100338.00;3313848;29;19929;-72
2021/09/07 01:40:29;;;;;;;;;;;;;;;11.37;59.11;100329.34;3314834;29;19956;-74
2021/09/07 01:42:10;;;;;;;;;;;;;;;11.35;59.50;100330.34;3315778;29;20532;-76
2021/09/07 01:43:50;;;;;;;;;;;;;;;11.36;59.38;100328.53;3315024;29;19933;-75
2021/09/07 01:45:31;;;;;;;;;;;;;;;11.37;59.61;100332.03;3315395;29;19933;-76
2021/09/07 01:47:11;;;;;;;;;;;;;;;11.31;59.31;100330.94;3316121;29;19935;-75
2021/09/07 01:48:52;;;;;;;;;;;;;;;11.25;59.71;100327.13;3315946;29;19929;-74
2021/09/07 01:50:32;;;;;;;;;;;;;;;11.23;59.76;100337.19;3313492;29;19953;-74
2021/09/07 01:52:14;;;;;;;;;;;;;;;11.23;59.73;100329.19;3312973;29;19935;-74
2021/09/07 01:53:54;;;;;;;;;;;;;;;11.23;59.72;100334.50;3313333;29;20397;-75
2021/09/07 01:55:35;;;;;;;;;;;;;;;11.27;59.75;100334.97;3312500;29;20416;-76
2021/09/07 01:57:16;;;;;;;;;;;;;;;11.29;59.46;100325.75;3312735;29;19936;-74
2021/09/07 01:58:57;;;;;;;;;;;;;;;11.29;59.63;100325.75;3313343;29;19929;-75
2021/09/07 02:00:38;;;;;;;;;;;;;;;11.31;59.62;100323.75;3313308;29;20600;-74
2021/09/07 02:02:19;;;;;;;;;;;;;;;11.32;59.21;100325.38;3313127;29;20079;-75
2021/09/07 02:04:04;;;;;;;;;;;;;;;11.32;59.42;100329.91;3313599;29;19929;-74
2021/09/07 02:05:47;;;;;;;;;;;;;;;11.31;59.88;100322.91;3313337;29;19937;-75
2021/09/07 02:07:27;;;;;;;;;;;;;;;11.29;59.47;100325.75;3313544;29;19982;-74
2021/09/07 02:09:08;;;;;;;;;;;;;;;11.29;59.64;100328.44;3313944;29;19929;-75
2021/09/07 02:10:49;;;;;;;;;;;;;;;11.28;59.88;100324.13;3315023;29;19928;-74
2021/09/07 02:12:31;;;;;;;;;;;;;;;11.29;59.93;100315.09;3313735;29;19940;-74
2021/09/07 02:14:11;;;;;;;;;;;;;;;11.31;59.73;100326.41;3313655;29;20404;-75
2021/09/07 02:15:53;;;;;;;;;;;;;;;11.33;59.76;100313.72;3313264;29;19929;-75
2021/09/07 02:17:33;;;;;;;;;;;;;;;11.36;59.71;100320.53;3313169;29;19993;-76
2021/09/07 02:19:14;;;;;;;;;;;;;;;11.36;59.75;100315.19;3311956;29;19921;-75
2021/09/07 02:20:55;;;;;;;;;;;;;;;11.37;59.74;100321.34;3312645;29;19929;-75
2021/09/07 02:22:35;;;;;;;;;;;;;;;11.38;59.93;100320.31;3312763;29;19921;-75
2021/09/07 02:24:16;;;;;;;;;;;;;;;11.38;59.63;100323.00;3313036;29;19929;-74
2021/09/07 02:25:57;;;;;;;;;;;;;;;11.38;59.71;100323.00;3313125;29;19929;-74
2021/09/07 02:27:39;;;;;;;;;;;;;;;11.39;59.83;100324.66;3312846;29;19936;-74
2021/09/07 02:29:20;;;;;;;;;;;;;;;11.39;59.77;100317.50;3312980;29;20314;-74
2021/09/07 02:31:01;;;;;;;;;;;;;;;11.40;59.80;100313.78;3313622;29;19937;-75
2021/09/07 02:32:42;;;;;;;;;;;;;;;11.40;59.87;100315.63;3315510;29;19929;-73
2021/09/07 02:34:22;;;;;;;;;;;;;;;11.41;59.82;100314.63;3315744;29;19936;-76
2021/09/07 02:36:03;;;;;;;;;;;;;;;11.40;59.86;100311.13;3315610;29;20369;-75
2021/09/07 02:37:45;;;;;;;;;;;;;;;11.39;59.77;100322.81;3314158;29;20390;-75
2021/09/07 02:39:27;;;;;;;;;;;;;;;11.38;59.86;100323.00;3313082;29;19933;-73
2021/09/07 02:41:08;;;;;;;;;;;;;;;11.38;60.01;100328.34;3312755;29;19929;-75
2021/09/07 02:42:49;;;;;;;;;;;;;;;11.35;59.80;100314.34;3312708;29;20405;-75
2021/09/07 02:44:30;;;;;;;;;;;;;;;11.36;59.99;100323.19;3312308;29;19937;-75
2021/09/07 02:46:11;;;;;;;;;;;;;;;11.34;59.70;100317.22;3324010;29;19933;-74
2021/09/07 02:47:53;;;;;;;;;;;;;;;11.33;59.90;100311.06;3314325;29;20390;-73
2021/09/07 02:49:35;;;;;;;;;;;;;;;11.32;59.82;100309.38;3312453;29;20023;-76
2021/09/07 02:51:16;;;;;;;;;;;;;;;11.31;60.09;100313.06;3312242;29;20472;-74
2021/09/07 02:52:57;;;;;;;;;;;;;;;11.32;60.01;100313.88;3312742;29;19933;-74
2021/09/07 02:54:38;;;;;;;;;;;;;;;11.33;60.00;100316.38;3312776;29;19936;-74
2021/09/07 02:56:19;;;;;;;;;;;;;;;11.37;59.87;100321.34;3312731;29;19988;-74
2021/09/07 02:58:04;;;;;;;;;;;;;;;11.39;59.89;100324.66;3312914;29;20082;-76
2021/09/07 02:59:45;;;;;;;;;;;;;;;11.39;59.93;100320.16;3313378;29;19933;-74
2021/09/07 03:01:26;;;;;;;;;;;;;;;11.39;60.00;100314.81;3313482;29;19936;-73
2021/09/07 03:03:07;;;;;;;;;;;;;;;11.39;59.94;100314.00;3313255;29;20338;-72
2021/09/07 03:04:49;;;;;;;;;;;;;;;11.37;60.44;100308.00;3313087;29;19928;-73
2021/09/07 03:06:31;;;;;;;;;;;;;;;11.32;60.38;100325.38;3313224;29;19933;-72
2021/09/07 03:08:12;;;;;;;;;;;;;;;11.29;60.42;100319.59;3314473;29;19929;-76
2021/09/07 03:09:53;;;;;;;;;;;;;;;11.27;60.65;100327.78;3315650;29;19936;-73
2021/09/07 03:11:35;;;;;;;;;;;;;;;11.26;60.67;100326.13;3315434;29;19929;-72
2021/09/07 03:13:15;;;;;;;;;;;;;;;11.22;60.74;100324.81;3315357;29;19937;-73
2021/09/07 03:14:57;;;;;;;;;;;;;;;11.23;60.68;100326.50;3315494;29;19995;-73
2021/09/07 03:16:38;;;;;;;;;;;;;;;11.26;60.94;100322.66;3314894;29;20357;-72
2021/09/07 03:18:20;;;;;;;;;;;;;;;11.27;60.95;100322.44;3314639;29;20553;-73
2021/09/07 03:20:02;;;;;;;;;;;;;;;11.25;60.71;100319.13;3315168;29;19929;-71
2021/09/07 03:21:43;;;;;;;;;;;;;;;11.22;61.09;100314.16;3314783;29;19929;-73
2021/09/07 03:23:24;;;;;;;;;;;;;;;11.22;60.93;100308.00;3314747;29;19936;-74
2021/09/07 03:25:06;;;;;;;;;;;;;;;11.22;61.04;100314.16;3314512;29;20019;-75
2021/09/07 03:26:46;;;;;;;;;;;;;;;11.22;61.13;100310.66;3314398;29;19936;-73
2021/09/07 03:28:27;;;;;;;;;;;;;;;11.21;61.50;100312.50;3313332;29;19966;-76
2021/09/07 03:30:08;;;;;;;;;;;;;;;11.20;61.58;100316.16;3314170;29;19968;-75
2021/09/07 03:31:50;;;;;;;;;;;;;;;11.20;61.40;100321.50;3314239;29;19929;-74
2021/09/07 03:33:30;;;;;;;;;;;;;;;11.18;61.50;100322.69;3314557;29;19937;-75
2021/09/07 03:35:12;;;;;;;;;;;;;;;11.16;61.82;100327.41;3314446;29;19929;-74
2021/09/07 03:36:56;;;;;;;;;;;;;;;11.15;62.11;100323.91;3314537;29;20019;-75
2021/09/07 03:38:38;;;;;;;;;;;;;;;11.13;61.62;100324.09;3314341;29;19932;-75
2021/09/07 03:40:19;;;;;;;;;;;;;;;11.14;61.73;100324.91;3314113;29;19929;-74
2021/09/07 03:42:00;;;;;;;;;;;;;;;11.14;61.92;100327.59;3314109;29;20420;-74
2021/09/07 03:43:40;;;;;;;;;;;;;;;11.14;61.96;100331.06;3314455;29;19929;-74
2021/09/07 03:45:23;;;;;;;;;;;;;;;11.16;61.77;100330.91;3314400;29;20441;-74
2021/09/07 03:47:04;;;;;;;;;;;;;;;11.17;62.35;100329.88;3314184;29;19986;-74
2021/09/07 03:48:46;;;;;;;;;;;;;;;11.18;62.22;100328.03;3314007;29;19929;-76
2021/09/07 03:50:27;;;;;;;;;;;;;;;11.19;62.02;100322.53;3314370;29;19929;-74
2021/09/07 03:52:09;;;;;;;;;;;;;;;11.20;62.12;100326.84;3314294;29;20019;-73
2021/09/07 03:53:50;;;;;;;;;;;;;;;11.23;62.56;100325.66;3314177;29;19936;-75
2021/09/07 03:55:31;;;;;;;;;;;;;;;11.24;62.16;100317.47;3314419;29;19929;-75
2021/09/07 03:57:15;;;;;;;;;;;;;;;11.25;62.55;100313.78;3312763;29;19929;-75
2021/09/07 03:58:56;;;;;;;;;;;;;;;11.25;62.33;100307.63;3314238;29;19952;-75
2021/09/07 04:00:36;;;;;;;;;;;;;;;11.26;62.44;100315.47;3313997;29;19929;-75
2021/09/07 04:02:17;;;;;;;;;;;;;;;11.28;62.62;100318.78;3313673;29;19929;-72
2021/09/07 04:03:58;;;;;;;;;;;;;;;11.27;62.43;100321.63;3314076;29;19929;-74
2021/09/07 04:05:38;;;;;;;;;;;;;;;11.26;62.67;100331.47;3313739;29;19936;-75
2021/09/07 04:07:19;;;;;;;;;;;;;;;11.27;62.81;100322.44;3313832;29;20406;-77
2021/09/07 04:09:00;;;;;;;;;;;;;;;11.27;62.72;100318.94;3313885;29;19976;-73
2021/09/07 04:10:42;;;;;;;;;;;;;;;11.28;62.87;100310.78;3312687;29;20429;-72
2021/09/07 04:12:23;;;;;;;;;;;;;;;11.32;62.88;100314.72;3313902;29;19935;-74
2021/09/07 04:14:05;;;;;;;;;;;;;;;11.34;62.68;100312.69;3313948;29;20313;-74
2021/09/07 04:15:47;;;;;;;;;;;;;;;11.38;62.48;100320.31;3313769;29;19936;-72
2021/09/07 04:17:29;;;;;;;;;;;;;;;11.39;62.79;100314.00;3313820;29;19988;-73
2021/09/07 04:19:10;;;;;;;;;;;;;;;11.43;62.45;100320.59;3313565;29;19929;-74
2021/09/07 04:20:51;;;;;;;;;;;;;;;11.48;62.37;100315.53;3313760;29;20021;-74
2021/09/07 04:22:31;;;;;;;;;;;;;;;11.48;62.28;100316.38;3314079;29;19937;-77
2021/09/07 04:24:12;;;;;;;;;;;;;;;11.47;62.47;100311.22;3313689;29;20080;-77
2021/09/07 04:25:52;;;;;;;;;;;;;;;11.42;62.52;100316.28;3312732;29;19929;-77
2021/09/07 04:27:33;;;;;;;;;;;;;;;11.43;62.58;100312.59;3313478;29;20437;-76
2021/09/07 04:29:13;;;;;;;;;;;;;;;11.43;62.66;100320.59;3313567;29;19929;-75
2021/09/07 04:30:54;;;;;;;;;;;;;;;11.43;62.77;100318.75;3313647;29;19936;-75
2021/09/07 04:32:34;;;;;;;;;;;;;;;11.45;62.45;100329.25;3313645;29;20515;-75
2021/09/07 04:34:15;;;;;;;;;;;;;;;11.45;62.90;100326.59;3325118;29;20306;-76
2021/09/07 04:35:55;;;;;;;;;;;;;;;11.46;62.64;100325.56;3316066;29;19929;-76
2021/09/07 04:37:36;;;;;;;;;;;;;;;11.48;62.58;100321.69;3312705;29;19936;-75
2021/09/07 04:39:17;;;;;;;;;;;;;;;11.51;62.51;100317.84;3314047;29;19929;-75
2021/09/07 04:40:57;;;;;;;;;;;;;;;11.57;62.37;100322.44;3313951;29;20024;-75
2021/09/07 04:42:38;;;;;;;;;;;;;;;11.60;62.23;100324.75;3313634;29;19935;-72
2021/09/07 04:44:21;;;;;;;;;;;;;;;11.63;62.49;100321.69;3313548;29;20005;-72
2021/09/07 04:46:02;;;;;;;;;;;;;;;11.71;62.68;100321.59;3313427;29;20363;-74
2021/09/07 04:47:42;;;;;;;;;;;;;;;11.78;62.62;100329.69;3325055;29;20045;-76
2021/09/07 04:49:24;;;;;;;;;;;;;;;11.82;62.51;100319.47;3315748;29;19928;-73
2021/09/07 04:51:04;;;;;;;;;;;;;;;11.84;62.60;100318.25;3313558;29;19921;-74
2021/09/07 04:52:45;;;;;;;;;;;;;;;11.86;62.57;100318.09;3313473;29;20456;-73
2021/09/07 04:54:25;;;;;;;;;;;;;;;11.86;62.39;100312.75;3313683;29;19944;-73
2021/09/07 04:56:06;;;;;;;;;;;;;;;11.88;62.40;100326.78;3309351;29;19929;-76
2021/09/07 04:57:46;;;;;;;;;;;;;;;11.91;62.46;100316.53;3325009;29;20417;-75
2021/09/07 04:59:27;;;;;;;;;;;;;;;11.94;62.74;100318.81;3309904;29;19940;-77
2021/09/07 05:01:09;;;;;;;;;;;;;;;11.96;62.38;100315.97;3306773;29;20314;-76
2021/09/07 05:02:49;;;;;;;;;;;;;;;12.00;62.27;100325.25;3304554;29;19929;-76
2021/09/07 05:04:30;;;;;;;;;;;;;;;12.02;62.22;100323.22;3300932;29;19928;-78
2021/09/07 05:06:11;;;;;;;;;;;;;;;12.02;62.07;100315.22;3300791;29;19938;-78
2021/09/07 05:07:51;;;;;;;;;;;;;;;12.03;62.07;100322.22;3300466;29;19936;-78
2021/09/07 05:09:32;;;;;;;;;;;;;;;12.05;62.35;100314.00;3305708;29;19960;-78
2021/09/07 05:11:12;;;;;;;;;;;;;;;12.05;62.13;100325.50;3306683;29;20019;-78
2021/09/07 05:12:53;;;;;;;;;;;;;;;12.08;61.95;100318.97;3313222;29;20016;-78
2021/09/07 05:14:33;;;;;;;;;;;;;;;12.10;61.97;100322.28;3313153;29;20023;-77
2021/09/07 05:16:14;;;;;;;;;;;;;;;12.10;62.01;100320.44;3312877;29;20393;-78
2021/09/07 05:17:55;;;;;;;;;;;;;;;12.13;61.76;100317.41;3313004;29;19939;-77
2021/09/07 05:19:35;;;;;;;;;;;;;;;12.19;61.55;100315.81;3312613;29;19921;-76
2021/09/07 05:21:16;;;;;;;;;;;;;;;12.23;61.73;100312.56;3303931;29;19930;-73
2021/09/07 05:22:57;;;;;;;;;;;;;;;12.28;61.56;100313.84;3324396;29;19936;-76
2021/09/07 05:24:38;;;;;;;;;;;;;;;12.33;61.43;100314.09;3337524;29;20419;-76
2021/09/07 05:26:18;;;;;;;;;;;;;;;12.41;61.33;100321.97;3317729;29;19929;-77
2021/09/07 05:27:59;;;;;;;;;;;;;;;12.50;60.95;100301.31;3322403;29;19929;-78
2021/09/07 05:29:39;;;;;;;;;;;;;;;12.57;60.77;100292.34;3315554;29;19985;-71
2021/09/07 05:31:21;;;;;;;;;;;;;;;12.60;60.81;100299.16;3321612;29;19935;-73
2021/09/07 05:33:02;;;;;;;;;;;;;;;12.62;60.79;100300.59;3325580;29;19935;-74
2021/09/07 05:34:42;;;;;;;;;;;;;;;12.74;60.76;100308.09;3325683;29;20321;-83
2021/09/07 05:36:23;;;;;;;;;;;;;;;12.90;60.64;100307.81;3325780;29;19936;-76
2021/09/07 05:38:05;;;;;;;;;;;;;;;13.10;60.51;100298.06;3336906;29;20383;-77
2021/09/07 05:39:45;;;;;;;;;;;;;;;13.32;60.29;100311.44;3337033;29;20452;-76
2021/09/07 05:41:26;;;;;;;;;;;;;;;13.45;60.14;100291.91;3304918;29;19936;-74
2021/09/07 05:43:06;;;;;;;;;;;;;;;13.56;60.25;100307.44;3313950;29;20439;-81
2021/09/07 05:44:47;;;;;;;;;;;;;;;13.70;60.86;100297.59;3300127;29;19986;-75
2021/09/07 05:46:27;;;;;;;;;;;;;;;13.87;60.65;100304.25;3309564;29;19929;-76
2021/09/07 05:48:08;;;;;;;;;;;;;;;14.07;60.31;100307.00;3302717;29;19952;-76
2021/09/07 05:49:49;;;;;;;;;;;;;;;14.23;60.01;100315.69;3299993;29;19933;-75
2021/09/07 05:51:29;;;;;;;;;;;;;;;14.36;59.79;100316.53;3305239;29;19929;-75
2021/09/07 05:53:10;;;;;;;;;;;;;;;14.48;59.78;100315.94;3312300;29;19932;-74
2021/09/07 05:54:50;;;;;;;;;;;;;;;14.59;59.35;100301.97;3312366;29;19936;-75
2021/09/07 05:56:31;;;;;;;;;;;;;;;14.69;59.12;100306.88;3324247;29;20286;-75
2021/09/07 05:58:11;;;;;;;;;;;;;;;14.86;58.65;100308.13;3298974;29;19929;-77
2021/09/07 05:59:54;;;;;;;;;;;;;;;15.10;58.15;100312.06;3319108;29;19936;-75
2021/09/07 06:01:36;;;;;;;;;;;;;;;15.41;57.51;100299.78;3312899;29;19929;-74
2021/09/07 06:03:16;;;;;;;;;;;;;;;15.70;56.98;100307.38;3312581;29;20039;-76
2021/09/07 06:04:57;;;;;;;;;;;;;;;15.99;56.31;100312.41;3312489;29;19929;-75
2021/09/07 06:06:37;;;;;;;;;;;;;;;16.23;56.03;100308.13;3306560;29;19936;-76
2021/09/07 06:08:18;;;;;;;;;;;;;;;16.49;55.20;100313.31;3299739;29;19936;-77
2021/09/07 06:09:59;;;;;;;;;;;;;;;16.71;54.77;100312.97;3300430;29;20032;-76
2021/09/07 06:11:39;;;;;;;;;;;;;;;16.92;54.51;100314.47;3302926;29;20445;-74
2021/09/07 06:13:21;;;;;;;;;;;;;;;17.09;53.89;100310.19;3300023;29;19973;-77
2021/09/07 06:15:02;;;;;;;;;;;;;;;17.15;53.88;100303.91;3300342;29;19929;-75
2021/09/07 06:16:43;;;;;;;;;;;;;;;17.19;53.51;100305.13;3315692;29;20012;-77
2021/09/07 06:18:24;;;;;;;;;;;;;;;17.21;53.18;100310.25;3302172;29;20002;-77
2021/09/07 06:20:05;;;;;;;;;;;;;;;17.39;52.87;100295.97;3303318;29;19933;-77
2021/09/07 06:21:45;;;;;;;;;;;;;;;17.62;52.52;100292.59;3300756;29;19929;-76
2021/09/07 06:23:26;;;;;;;;;;;;;;;17.88;52.62;100305.78;3299715;29;19936;-75
2021/09/07 06:25:07;;;;;;;;;;;;;;;18.06;52.19;100301.41;3307281;29;19928;-76
2021/09/07 06:26:47;;;;;;;;;;;;;;;18.19;51.64;100297.69;3311728;29;20013;-76
2021/09/07 06:28:28;;;;;;;;;;;;;;;18.31;51.55;100293.97;3311581;29;19933;-75
2021/09/07 06:30:09;;;;;;;;;;;;;;;18.57;51.06;100299.22;3307723;29;20420;-75
2021/09/07 06:31:49;;;;;;;;;;;;;;;18.84;50.76;100297.72;3310284;29;20317;-76
2021/09/07 06:33:30;;;;;;;;;;;;;;;19.17;50.30;100290.91;3299804;29;19941;-76
2021/09/07 06:35:11;;;;;;;;;;;;;;;19.54;50.01;100288.75;3299750;29;19929;-75
2021/09/07 06:36:52;;;;;;;;;;;;;;;19.93;49.47;100294.44;3299725;29;19929;-75
2021/09/07 06:38:32;;;;;;;;;;;;;;;20.18;48.58;100290.53;3299814;29;20016;-76
2021/09/07 06:40:13;;;;;;;;;;;;;;;20.23;48.17;100296.03;3299917;29;19952;-76
2021/09/07 06:41:53;;;;;;;;;;;;;;;20.44;48.01;100289.91;3301645;29;19937;-76
2021/09/07 06:43:35;;;;;;;;;;;;;;;20.67;47.70;100298.97;3302108;29;20385;-77
2021/09/07 06:45:16;;;;;;;;;;;;;;;20.97;47.65;100300.53;3290921;30;19937;-77
2021/09/07 06:46:56;;;;;;;;;;;;;;;21.21;46.98;100296.53;3311976;29;19929;-76
2021/09/07 06:48:37;;;;;;;;;;;;;;;21.32;46.50;100294.78;3313343;29;19932;-75
2021/09/07 06:50:17;;;;;;;;;;;;;;;21.24;46.37;100293.31;3314453;29;19929;-77
2021/09/07 06:51:58;;;;;;;;;;;;;;;21.15;45.71;100294.03;3314295;29;20010;-77
2021/09/07 06:53:39;;;;;;;;;;;;;;;21.03;46.03;100296.84;3313817;29;19995;-76
2021/09/07 06:55:19;;;;;;;;;;;;;;;20.87;46.01;100303.91;3314085;29;20016;-76
2021/09/07 06:57:00;;;;;;;;;;;;;;;20.65;46.13;100288.41;3302526;29;19933;-77
2021/09/07 06:58:40;;;;;;;;;;;;;;;20.43;46.52;100288.28;3307010;29;20406;-77
2021/09/07 07:00:21;;;;;;;;;;;;;;;20.22;46.33;100294.41;3311314;29;19929;-77
2021/09/07 07:02:01;;;;;;;;;;;;;;;19.97;46.55;100290.16;3314789;29;20039;-77
2021/09/07 07:03:43;;;;;;;;;;;;;;;19.75;47.56;100289.19;3308711;29;19933;-77
2021/09/07 07:05:25;;;;;;;;;;;;;;;19.52;47.14;100287.34;3302924;29;20398;-78
2021/09/07 07:07:06;;;;;;;;;;;;;;;19.33;47.14;100283.97;3311449;29;20382;-79
2021/09/07 07:08:46;;;;;;;;;;;;;;;19.17;47.39;100289.03;3314321;29;19936;-77
2021/09/07 07:10:27;;;;;;;;;;;;;;;19.01;47.42;100286.25;3307061;29;19929;-76
2021/09/07 07:12:07;;;;;;;;;;;;;;;18.80;46.62;100280.38;3314626;29;19929;-76
2021/09/07 07:13:48;;;;;;;;;;;;;;;18.60;47.76;100280.66;3308596;29;19930;-75
2021/09/07 07:15:29;;;;;;;;;;;;;;;18.48;48.30;100287.91;3303100;29;19933;-74
2021/09/07 07:17:09;;;;;;;;;;;;;;;18.42;48.52;100294.25;3308064;29;19936;-75
2021/09/07 07:18:50;;;;;;;;;;;;;;;18.35;48.66;100285.41;3312659;29;20081;-75
2021/09/07 07:20:32;;;;;;;;;;;;;;;18.28;48.82;100283.66;3312801;29;20020;-79
2021/09/07 07:22:14;;;;;;;;;;;;;;;18.14;47.81;100284.88;3312999;29;19929;-78
2021/09/07 07:23:56;;;;;;;;;;;;;;;17.95;48.32;100283.31;3314415;29;19968;-79
2021/09/07 07:25:37;;;;;;;;;;;;;;;17.77;48.34;100281.44;3312691;29;19936;-78
2021/09/07 07:27:18;;;;;;;;;;;;;;;17.61;48.48;100277.50;3313640;29;19936;-78
2021/09/07 07:29:00;;;;;;;;;;;;;;;17.46;49.04;100277.06;3321936;29;20389;-77
2021/09/07 07:30:43;;;;;;;;;;;;;;;17.35;48.90;100278.63;3325711;29;19929;-77
2021/09/07 07:32:24;;;;;;;;;;;;;;;17.26;48.94;100286.16;3325520;29;19924;-78
2021/09/07 07:34:05;;;;;;;;;;;;;;;17.15;49.33;100295.81;3325295;29;19929;-77
2021/09/07 07:35:46;;;;;;;;;;;;;;;17.02;49.24;100295.13;3337377;29;20726;-78
2021/09/07 07:37:29;;;;;;;;;;;;;;;16.89;49.30;100291.50;3321366;29;19933;-79
2021/09/07 07:39:10;;;;;;;;;;;;;;;16.81;49.92;100299.88;3325698;29;20385;-78
2021/09/07 07:40:53;;;;;;;;;;;;;;;16.68;50.33;100303.47;3316251;29;20342;-78
2021/09/07 07:42:34;;;;;;;;;;;;;;;16.55;50.80;100296.31;3313958;29;19940;-79
2021/09/07 07:44:14;;;;;;;;;;;;;;;16.45;50.70;100298.69;3313526;29;19935;-78
2021/09/07 07:45:55;;;;;;;;;;;;;;;16.34;51.05;100296.66;3313985;29;19936;-80
2021/09/07 07:47:36;;;;;;;;;;;;;;;16.25;51.06;100311.44;3314331;29;20285;-79
2021/09/07 07:49:16;;;;;;;;;;;;;;;16.17;51.09;100300.94;3309213;29;19929;-80
2021/09/07 07:50:57;;;;;;;;;;;;;;;16.06;51.54;100302.44;3306129;29;20072;-78
2021/09/07 07:52:38;;;;;;;;;;;;;;;15.97;51.60;100303.72;3308193;29;19941;-79
2021/09/07 07:54:20;;;;;;;;;;;;;;;15.86;51.77;100291.78;3318306;29;19928;-78
2021/09/07 07:56:01;;;;;;;;;;;;;;;15.77;51.68;100301.94;3306353;29;19995;-79
2021/09/07 07:57:42;;;;;;;;;;;;;;;15.73;51.71;100297.22;3301859;29;19936;-80
2021/09/07 07:59:23;;;;;;;;;;;;;;;15.69;51.76;100281.53;3320191;29;20355;-78
2021/09/07 08:01:04;;;;;;;;;;;;;;;15.62;51.87;100291.47;3328071;29;19933;-79
2021/09/07 08:02:45;;;;;;;;;;;;;;;15.58;51.97;100290.22;3325535;29;19935;-80
2021/09/07 08:04:26;;;;;;;;;;;;;;;15.55;52.07;100289.84;3325539;29;19979;-78
2021/09/07 08:06:07;;;;;;;;;;;;;;;15.52;52.29;100292.94;3337685;29;19928;-79
2021/09/07 08:07:49;;;;;;;;;;;;;;;15.52;52.17;100291.06;3328271;29;19928;-84
2021/09/07 08:09:31;;;;;;;;;;;;;;;15.55;52.20;100287.97;3318075;29;20002;-78
2021/09/07 08:11:12;;;;;;;;;;;;;;;15.57;52.19;100280.53;3312904;29;19932;-78
2021/09/07 08:12:54;;;;;;;;;;;;;;;15.59;52.21;100283.81;3313883;29;19986;-77
2021/09/07 08:14:34;;;;;;;;;;;;;;;15.60;52.19;100285.47;3325387;29;19928;-79
2021/09/07 08:16:15;;;;;;;;;;;;;;;15.62;52.01;100286.09;3326499;29;19929;-80
2021/09/07 08:17:55;;;;;;;;;;;;;;;15.63;52.33;100281.53;3326590;29;19933;-78
2021/09/07 08:19:36;;;;;;;;;;;;;;;15.65;52.41;100279.47;3326308;29;20401;-78
2021/09/07 08:21:17;;;;;;;;;;;;;;;15.66;52.46;100289.16;3325619;29;19929;-81
2021/09/07 08:22:58;;;;;;;;;;;;;;;15.65;52.16;100280.28;3336048;29;20023;-80
2021/09/07 08:24:39;;;;;;;;;;;;;;;15.64;52.42;100289.38;3325366;29;19929;-79
2021/09/07 08:26:20;;;;;;;;;;;;;;;15.63;52.33;100276.97;3326155;29;19979;-82
2021/09/07 08:28:00;;;;;;;;;;;;;;;15.63;52.68;100284.22;3326880;29;20413;-80
2021/09/07 08:29:41;;;;;;;;;;;;;;;15.62;52.68;100286.09;3334415;29;20009;-79
2021/09/07 08:31:21;;;;;;;;;;;;;;;15.61;52.93;100283.59;3317300;29;19932;-79
2021/09/07 08:33:02;;;;;;;;;;;;;;;15.61;52.90;100283.59;3315102;29;20382;-80
2021/09/07 08:34:43;;;;;;;;;;;;;;;15.62;52.64;100277.19;3313955;29;19960;-80
2021/09/07 08:36:23;;;;;;;;;;;;;;;15.58;52.68;100284.84;3310803;29;19932;-80
2021/09/07 08:38:04;;;;;;;;;;;;;;;15.58;52.92;100284.03;3313783;29;19929;-78